sensor_id;sensor_type;location;lat;lon;timestamp;pressure;altitude;pressure_sealevel;temperature;humidity
72892;BME280;61032;50.782;6.818;2024-01-30T00:00:00;101705.22;;;8.41;78.11
72892;BME280;61032;50.782;6.818;2024-01-30T00:01:01;101695.09;;;8.42;77.99
72892;BME280;61032;50.782;6.818;2024-01-30T00:02:01;101706.06;;;8.42;77.65
72892;BME280;61032;50.782;6.818;2024-01-30T00:03:02;101701.97;;;8.39;77.67
72892;BME280;61032;50.782;6.818;2024-01-30T00:04:02;101700.56;;;8.42;77.66
72892;BME280;61032;50.782;6.818;2024-01-30T00:05:03;101702.53;;;8.36;77.89
72892;BME280;61032;50.782;6.818;2024-01-30T00:06:03;101698.41;;;8.39;77.91
72892;BME280;61032;50.782;6.818;2024-01-30T00:07:04;101699.22;;;8.39;78.10
72892;BME280;61032;50.782;6.818;2024-01-30T00:08:05;101694.03;;;8.38;78.01
72892;BME280;61032;50.782;6.818;2024-01-30T00:09:05;101694.59;;;8.35;78.23
72892;BME280;61032;50.782;6.818;2024-01-30T00:10:05;101695.94;;;8.37;78.14
72892;BME280;61032;50.782;6.818;2024-01-30T00:11:07;101688.56;;;8.33;78.17
72892;BME280;61032;50.782;6.818;2024-01-30T00:12:07;101693.22;;;8.32;78.30
72892;BME280;61032;50.782;6.818;2024-01-30T00:13:08;101689.66;;;8.32;78.28
72892;BME280;61032;50.782;6.818;2024-01-30T00:14:08;101690.78;;;8.31;78.83
72892;BME280;61032;50.782;6.818;2024-01-30T00:15:09;101691.31;;;8.33;78.67
72892;BME280;61032;50.782;6.818;2024-01-30T00:16:23;101692.94;;;8.34;78.40
72892;BME280;61032;50.782;6.818;2024-01-30T00:17:27;101686.91;;;8.32;78.56
72892;BME280;61032;50.782;6.818;2024-01-30T00:18:27;101687.78;;;8.27;78.83
72892;BME280;61032;50.782;6.818;2024-01-30T00:19:27;101690.81;;;8.25;79.07
72892;BME280;61032;50.782;6.818;2024-01-30T00:20:28;101676.81;;;8.27;79.07
72892;BME280;61032;50.782;6.818;2024-01-30T00:21:28;101683.13;;;8.27;79.18
72892;BME280;61032;50.782;6.818;2024-01-30T00:22:28;101684.50;;;8.25;79.02
72892;BME280;61032;50.782;6.818;2024-01-30T00:23:30;101686.44;;;8.24;79.40
72892;BME280;61032;50.782;6.818;2024-01-30T00:24:30;101681.19;;;8.28;79.16
72892;BME280;61032;50.782;6.818;2024-01-30T00:25:31;101686.91;;;8.32;79.00
72892;BME280;61032;50.782;6.818;2024-01-30T00:26:33;101682.28;;;8.32;79.10
72892;BME280;61032;50.782;6.818;2024-01-30T00:27:33;101673.81;;;8.28;79.35
72892;BME280;61032;50.782;6.818;2024-01-30T00:28:34;101679.81;;;8.31;79.60
72892;BME280;61032;50.782;6.818;2024-01-30T00:29:34;101678.69;;;8.32;79.33
72892;BME280;61032;50.782;6.818;2024-01-30T00:30:34;101677.63;;;8.33;79.30
72892;BME280;61032;50.782;6.818;2024-01-30T00:31:35;101679.50;;;8.37;79.10
72892;BME280;61032;50.782;6.818;2024-01-30T00:32:35;101680.31;;;8.38;79.46
72892;BME280;61032;50.782;6.818;2024-01-30T00:33:35;101675.69;;;8.33;79.03
72892;BME280;61032;50.782;6.818;2024-01-30T00:34:36;101677.03;;;8.36;79.19
72892;BME280;61032;50.782;6.818;2024-01-30T00:35:36;101677.88;;;8.36;78.90
72892;BME280;61032;50.782;6.818;2024-01-30T00:36:37;101671.28;;;8.37;79.01
72892;BME280;61032;50.782;6.818;2024-01-30T00:37:37;101669.66;;;8.36;78.80
72892;BME280;61032;50.782;6.818;2024-01-30T00:38:37;101680.88;;;8.35;79.04
72892;BME280;61032;50.782;6.818;2024-01-30T00:39:38;101671.56;;;8.36;78.99
72892;BME280;61032;50.782;6.818;2024-01-30T00:40:38;101671.31;;;8.32;78.99
72892;BME280;61032;50.782;6.818;2024-01-30T00:41:38;101677.06;;;8.31;79.08
72892;BME280;61032;50.782;6.818;2024-01-30T00:42:38;101673.78;;;8.34;78.93
72892;BME280;61032;50.782;6.818;2024-01-30T00:43:39;101675.94;;;8.32;78.80
72892;BME280;61032;50.782;6.818;2024-01-30T00:44:39;101676.78;;;8.32;79.06
72892;BME280;61032;50.782;6.818;2024-01-30T00:45:39;101668.81;;;8.36;78.74
72892;BME280;61032;50.782;6.818;2024-01-30T00:46:40;101673.78;;;8.34;78.92
72892;BME280;61032;50.782;6.818;2024-01-30T00:47:40;101675.13;;;8.36;78.80
72892;BME280;61032;50.782;6.818;2024-01-30T00:48:41;101674.31;;;8.36;78.50
72892;BME280;61032;50.782;6.818;2024-01-30T00:49:41;101672.41;;;8.31;78.78
72892;BME280;61032;50.782;6.818;2024-01-30T00:50:41;101673.78;;;8.34;78.69
72892;BME280;61032;50.782;6.818;2024-01-30T00:51:42;101671.59;;;8.31;78.66
72892;BME280;61032;50.782;6.818;2024-01-30T00:52:42;101665.59;;;8.28;78.61
72892;BME280;61032;50.782;6.818;2024-01-30T00:53:45;101671.03;;;8.34;78.46
72892;BME280;61032;50.782;6.818;2024-01-30T00:54:45;101669.41;;;8.33;78.42
72892;BME280;61032;50.782;6.818;2024-01-30T00:55:46;101672.41;;;8.31;78.37
72892;BME280;61032;50.782;6.818;2024-01-30T00:56:46;101662.31;;;8.26;78.64
72892;BME280;61032;50.782;6.818;2024-01-30T00:57:46;101663.72;;;8.19;78.75
72892;BME280;61032;50.782;6.818;2024-01-30T00:58:47;101663.19;;;8.17;79.07
72892;BME280;61032;50.782;6.818;2024-01-30T00:59:47;101653.34;;;8.16;79.04
72892;BME280;61032;50.782;6.818;2024-01-30T01:00:48;101666.78;;;8.12;79.26
72892;BME280;61032;50.782;6.818;2024-01-30T01:01:48;101667.88;;;8.11;79.29
72892;BME280;61032;50.782;6.818;2024-01-30T01:02:48;101667.31;;;8.14;79.39
72892;BME280;61032;50.782;6.818;2024-01-30T01:03:48;101664.81;;;8.18;78.94
72892;BME280;61032;50.782;6.818;2024-01-30T01:04:49;101666.44;;;8.24;78.61
72892;BME280;61032;50.782;6.818;2024-01-30T01:05:50;101666.19;;;8.20;78.81
72892;BME280;61032;50.782;6.818;2024-01-30T01:06:50;101666.19;;;8.20;78.76
72892;BME280;61032;50.782;6.818;2024-01-30T01:07:51;101664.81;;;8.18;78.92
72892;BME280;61032;50.782;6.818;2024-01-30T01:08:51;101662.09;;;8.18;78.68
72892;BME280;61032;50.782;6.818;2024-01-30T01:09:52;101659.06;;;8.19;78.86
72892;BME280;61032;50.782;6.818;2024-01-30T01:10:52;101661.28;;;8.17;79.13
72892;BME280;61032;50.782;6.818;2024-01-30T01:11:52;101660.16;;;8.18;79.15
72892;BME280;61032;50.782;6.818;2024-01-30T01:12:53;101665.66;;;8.18;79.52
72892;BME280;61032;50.782;6.818;2024-01-30T01:13:53;101664.00;;;8.17;78.98
72892;BME280;61032;50.782;6.818;2024-01-30T01:14:53;101664.00;;;8.17;79.50
72892;BME280;61032;50.782;6.818;2024-01-30T01:15:54;101661.28;;;8.17;79.56
72892;BME280;61032;50.782;6.818;2024-01-30T01:16:55;101662.09;;;8.18;79.45
72892;BME280;61032;50.782;6.818;2024-01-30T01:17:55;101663.44;;;8.20;79.46
72892;BME280;61032;50.782;6.818;2024-01-30T01:18:55;101662.09;;;8.18;79.66
72892;BME280;61032;50.782;6.818;2024-01-30T01:19:56;101661.84;;;8.14;79.29
72892;BME280;61032;50.782;6.818;2024-01-30T01:20:56;101661.00;;;8.14;79.60
72892;BME280;61032;50.782;6.818;2024-01-30T01:21:56;101661.84;;;8.14;79.77
72892;BME280;61032;50.782;6.818;2024-01-30T01:22:57;101663.47;;;8.15;79.95
72892;BME280;61032;50.782;6.818;2024-01-30T01:23:57;101662.38;;;8.16;79.86
72892;BME280;61032;50.782;6.818;2024-01-30T01:24:58;101662.06;;;8.23;79.47
72892;BME280;61032;50.782;6.818;2024-01-30T01:25:59;101663.41;;;8.25;79.49
72892;BME280;61032;50.782;6.818;2024-01-30T01:27:01;101660.13;;;8.23;79.42
72892;BME280;61032;50.782;6.818;2024-01-30T01:28:01;101662.59;;;8.25;79.67
72892;BME280;61032;50.782;6.818;2024-01-30T01:29:01;101670.00;;;8.24;79.75
72892;BME280;61032;50.782;6.818;2024-01-30T01:30:04;101670.28;;;8.23;79.33
72892;BME280;61032;50.782;6.818;2024-01-30T01:31:06;101664.22;;;8.26;79.62
72892;BME280;61032;50.782;6.818;2024-01-30T01:32:06;101663.09;;;8.32;79.31
72892;BME280;61032;50.782;6.818;2024-01-30T01:33:06;101660.06;;;8.34;79.50
72892;BME280;61032;50.782;6.818;2024-01-30T01:34:07;101662.53;;;8.35;79.40
72892;BME280;61032;50.782;6.818;2024-01-30T01:35:07;101663.06;;;8.37;79.25
72892;BME280;61032;50.782;6.818;2024-01-30T01:36:08;101664.41;;;8.40;79.28
72892;BME280;61032;50.782;6.818;2024-01-30T01:37:08;101655.38;;;8.39;79.05
72892;BME280;61032;50.782;6.818;2024-01-30T01:38:08;101668.78;;;8.41;78.96
72892;BME280;61032;50.782;6.818;2024-01-30T01:39:09;101665.47;;;8.44;79.23
72892;BME280;61032;50.782;6.818;2024-01-30T01:40:10;101661.91;;;8.43;78.99
72892;BME280;61032;50.782;6.818;2024-01-30T01:41:11;101662.22;;;8.42;79.04
72892;BME280;61032;50.782;6.818;2024-01-30T01:42:11;101660.56;;;8.41;78.91
72892;BME280;61032;50.782;6.818;2024-01-30T01:43:11;101655.91;;;8.41;79.10
72892;BME280;61032;50.782;6.818;2024-01-30T01:44:12;101663.84;;;8.43;79.09
72892;BME280;61032;50.782;6.818;2024-01-30T01:45:12;101664.38;;;8.45;79.17
72892;BME280;61032;50.782;6.818;2024-01-30T01:46:12;101661.06;;;8.48;78.81
72892;BME280;61032;50.782;6.818;2024-01-30T01:47:13;101664.09;;;8.46;79.03
72892;BME280;61032;50.782;6.818;2024-01-30T01:48:14;101659.97;;;8.49;79.05
72892;BME280;61032;50.782;6.818;2024-01-30T01:49:14;101656.13;;;8.50;79.10
72892;BME280;61032;50.782;6.818;2024-01-30T01:50:16;101655.06;;;8.46;79.38
72892;BME280;61032;50.782;6.818;2024-01-30T01:51:18;101660.25;;;8.47;79.02
72892;BME280;61032;50.782;6.818;2024-01-30T01:52:20;101658.91;;;8.45;79.26
72892;BME280;61032;50.782;6.818;2024-01-30T01:53:21;101664.09;;;8.46;79.07
72892;BME280;61032;50.782;6.818;2024-01-30T01:54:23;101653.66;;;8.48;79.01
72892;BME280;61032;50.782;6.818;2024-01-30T01:55:24;101653.59;;;8.53;79.03
72892;BME280;61032;50.782;6.818;2024-01-30T01:56:26;101659.91;;;8.54;78.88
72892;BME280;61032;50.782;6.818;2024-01-30T01:57:28;101656.94;;;8.50;78.88
72892;BME280;61032;50.782;6.818;2024-01-30T01:58:29;101654.19;;;8.50;78.92
72892;BME280;61032;50.782;6.818;2024-01-30T01:59:30;101659.69;;;8.50;78.94
72892;BME280;61032;50.782;6.818;2024-01-30T02:00:30;101662.72;;;8.49;79.22
72892;BME280;61032;50.782;6.818;2024-01-30T02:01:32;101662.72;;;8.49;78.97
72892;BME280;61032;50.782;6.818;2024-01-30T02:02:35;101655.59;;;8.48;79.26
72892;BME280;61032;50.782;6.818;2024-01-30T02:03:35;101656.69;;;8.47;79.19
72892;BME280;61032;50.782;6.818;2024-01-30T02:04:35;101656.69;;;8.47;79.43
72892;BME280;61032;50.782;6.818;2024-01-30T02:05:36;101650.09;;;8.48;79.12
72892;BME280;61032;50.782;6.818;2024-01-30T02:06:37;101647.28;;;8.53;79.15
72892;BME280;61032;50.782;6.818;2024-01-30T02:07:38;101654.66;;;8.57;78.97
72892;BME280;61032;50.782;6.818;2024-01-30T02:08:39;101652.22;;;8.56;78.79
72892;BME280;61032;50.782;6.818;2024-01-30T02:09:39;101651.91;;;8.57;79.02
72892;BME280;61032;50.782;6.818;2024-01-30T02:10:40;101656.53;;;8.62;78.79
72892;BME280;61032;50.782;6.818;2024-01-30T02:11:40;101642.84;;;8.62;78.87
72892;BME280;61032;50.782;6.818;2024-01-30T02:12:41;101646.66;;;8.66;78.93
72892;BME280;61032;50.782;6.818;2024-01-30T02:13:41;101644.72;;;8.67;78.78
72892;BME280;61032;50.782;6.818;2024-01-30T02:14:48;101642.56;;;8.64;79.01
72892;BME280;61032;50.782;6.818;2024-01-30T02:15:52;101650.19;;;8.67;78.61
72892;BME280;61032;50.782;6.818;2024-01-30T02:16:53;101641.41;;;8.70;78.47
72892;BME280;61032;50.782;6.818;2024-01-30T02:17:53;101638.66;;;8.70;78.60
72892;BME280;61032;50.782;6.818;2024-01-30T02:18:53;101641.41;;;8.70;78.29
72892;BME280;61032;50.782;6.818;2024-01-30T02:19:54;101640.59;;;8.69;78.42
72892;BME280;61032;50.782;6.818;2024-01-30T02:20:56;101645.50;;;8.72;78.54
72892;BME280;61032;50.782;6.818;2024-01-30T02:21:57;101653.41;;;8.74;78.40
72892;BME280;61032;50.782;6.818;2024-01-30T02:22:58;101648.25;;;8.72;78.26
72892;BME280;61032;50.782;6.818;2024-01-30T02:24:02;101641.97;;;8.67;78.61
72892;BME280;61032;50.782;6.818;2024-01-30T02:25:03;101643.34;;;8.69;78.38
72892;BME280;61032;50.782;6.818;2024-01-30T02:26:04;101644.44;;;8.68;78.92
72892;BME280;61032;50.782;6.818;2024-01-30T02:27:05;101646.66;;;8.66;78.50
72892;BME280;61032;50.782;6.818;2024-01-30T02:28:05;101640.34;;;8.66;78.65
72892;BME280;61032;50.782;6.818;2024-01-30T02:29:06;101641.13;;;8.71;78.61
72892;BME280;61032;50.782;6.818;2024-01-30T02:30:06;101651.19;;;8.76;78.13
72892;BME280;61032;50.782;6.818;2024-01-30T02:31:07;101650.38;;;8.75;78.28
72892;BME280;61032;50.782;6.818;2024-01-30T02:32:07;101644.38;;;8.73;78.42
72892;BME280;61032;50.782;6.818;2024-01-30T02:33:08;101643.25;;;8.74;78.21
72892;BME280;61032;50.782;6.818;2024-01-30T02:34:08;101642.97;;;8.76;78.01
72892;BME280;61032;50.782;6.818;2024-01-30T02:35:08;101638.59;;;8.75;78.18
72892;BME280;61032;50.782;6.818;2024-01-30T02:36:09;101637.78;;;8.74;78.26
72892;BME280;61032;50.782;6.818;2024-01-30T02:37:09;101640.22;;;8.76;78.40
72892;BME280;61032;50.782;6.818;2024-01-30T02:38:09;101635.34;;;8.73;78.34
72892;BME280;61032;50.782;6.818;2024-01-30T02:39:10;101638.31;;;8.76;78.39
72892;BME280;61032;50.782;6.818;2024-01-30T02:40:10;101637.19;;;8.77;78.24
72892;BME280;61032;50.782;6.818;2024-01-30T02:41:10;101633.34;;;8.78;77.85
72892;BME280;61032;50.782;6.818;2024-01-30T02:42:11;101635.50;;;8.81;77.89
72892;BME280;61032;50.782;6.818;2024-01-30T02:43:11;101635.28;;;8.78;78.20
72892;BME280;61032;50.782;6.818;2024-01-30T02:44:12;101634.16;;;8.79;77.94
72892;BME280;61032;50.782;6.818;2024-01-30T02:45:13;101638.31;;;8.76;78.07
72892;BME280;61032;50.782;6.818;2024-01-30T02:46:13;101632.81;;;8.76;78.02
72892;BME280;61032;50.782;6.818;2024-01-30T02:47:13;101632.91;;;8.71;78.45
72892;BME280;61032;50.782;6.818;2024-01-30T02:48:14;101634.00;;;8.70;78.30
72892;BME280;61032;50.782;6.818;2024-01-30T02:49:14;101631.78;;;8.72;78.63
72892;BME280;61032;50.782;6.818;2024-01-30T02:50:14;101635.00;;;8.79;78.25
72892;BME280;61032;50.782;6.818;2024-01-30T02:51:16;101631.72;;;8.77;78.36
72892;BME280;61032;50.782;6.818;2024-01-30T02:52:17;101633.34;;;8.78;78.15
72892;BME280;61032;50.782;6.818;2024-01-30T02:53:17;101635.81;;;8.80;78.33
72892;BME280;61032;50.782;6.818;2024-01-30T02:54:17;101630.31;;;8.80;78.36
72892;BME280;61032;50.782;6.818;2024-01-30T02:55:18;101629.22;;;8.81;78.08
72892;BME280;61032;50.782;6.818;2024-01-30T02:56:18;101628.13;;;8.82;78.13
72892;BME280;61032;50.782;6.818;2024-01-30T02:57:19;101626.53;;;8.76;78.50
72892;BME280;61032;50.782;6.818;2024-01-30T02:58:19;101622.13;;;8.75;78.54
72892;BME280;61032;50.782;6.818;2024-01-30T02:59:19;101624.03;;;8.79;78.32
72892;BME280;61032;50.782;6.818;2024-01-30T03:00:20;101627.81;;;8.83;78.42
72892;BME280;61032;50.782;6.818;2024-01-30T03:01:20;101622.91;;;8.80;78.04
72892;BME280;61032;50.782;6.818;2024-01-30T03:02:21;101626.75;;;8.79;77.93
72892;BME280;61032;50.782;6.818;2024-01-30T03:03:21;101624.03;;;8.79;78.04
72892;BME280;61032;50.782;6.818;2024-01-30T03:04:21;101629.22;;;8.81;77.98
72892;BME280;61032;50.782;6.818;2024-01-30T03:05:22;101620.50;;;8.74;78.18
72892;BME280;61032;50.782;6.818;2024-01-30T03:06:22;101619.13;;;8.76;78.06
72892;BME280;61032;50.782;6.818;2024-01-30T03:07:23;101621.03;;;8.76;78.01
72892;BME280;61032;50.782;6.818;2024-01-30T03:08:23;101629.06;;;8.72;78.13
72892;BME280;61032;50.782;6.818;2024-01-30T03:09:23;101628.22;;;8.72;78.28
72892;BME280;61032;50.782;6.818;2024-01-30T03:10:24;101626.47;;;8.81;78.38
72892;BME280;61032;50.782;6.818;2024-01-30T03:11:24;101620.41;;;8.84;78.16
72892;BME280;61032;50.782;6.818;2024-01-30T03:12:24;101620.41;;;8.84;77.98
72892;BME280;61032;50.782;6.818;2024-01-30T03:13:24;101621.00;;;8.81;77.66
72892;BME280;61032;50.782;6.818;2024-01-30T03:14:25;101626.81;;;8.74;78.11
72892;BME280;61032;50.782;6.818;2024-01-30T03:15:25;101618.91;;;8.73;78.44
72892;BME280;61032;50.782;6.818;2024-01-30T03:16:25;101626.53;;;8.76;78.58
72892;BME280;61032;50.782;6.818;2024-01-30T03:17:26;101626.22;;;8.77;78.46
72892;BME280;61032;50.782;6.818;2024-01-30T03:18:26;101625.41;;;8.77;78.26
72892;BME280;61032;50.782;6.818;2024-01-30T03:19:26;101626.81;;;8.74;78.54
72892;BME280;61032;50.782;6.818;2024-01-30T03:20:27;101625.41;;;8.77;78.47
72892;BME280;61032;50.782;6.818;2024-01-30T03:21:27;101627.34;;;8.76;78.14
72892;BME280;61032;50.782;6.818;2024-01-30T03:22:27;101620.75;;;8.77;78.49
72892;BME280;61032;50.782;6.818;2024-01-30T03:23:28;101624.31;;;8.78;78.25
72892;BME280;61032;50.782;6.818;2024-01-30T03:24:28;101618.25;;;8.81;78.54
72892;BME280;61032;50.782;6.818;2024-01-30T03:25:28;101619.06;;;8.81;78.08
72892;BME280;61032;50.782;6.818;2024-01-30T03:26:29;101619.34;;;8.80;78.34
72892;BME280;61032;50.782;6.818;2024-01-30T03:27:29;101616.63;;;8.80;78.28
72892;BME280;61032;50.782;6.818;2024-01-30T03:28:29;101616.91;;;8.78;78.34
72892;BME280;61032;50.782;6.818;2024-01-30T03:29:30;101616.66;;;8.75;78.27
72892;BME280;61032;50.782;6.818;2024-01-30T03:30:30;101614.69;;;8.80;78.37
72892;BME280;61032;50.782;6.818;2024-01-30T03:31:30;101617.44;;;8.80;78.11
72892;BME280;61032;50.782;6.818;2024-01-30T03:32:30;101617.13;;;8.82;78.46
72892;BME280;61032;50.782;6.818;2024-01-30T03:33:31;101619.59;;;8.83;78.28
72892;BME280;61032;50.782;6.818;2024-01-30T03:34:31;101620.16;;;8.80;78.19
72892;BME280;61032;50.782;6.818;2024-01-30T03:35:31;101620.16;;;8.80;78.36
72892;BME280;61032;50.782;6.818;2024-01-30T03:36:32;101615.50;;;8.81;78.12
72892;BME280;61032;50.782;6.818;2024-01-30T03:37:34;101612.22;;;8.79;78.02
72892;BME280;61032;50.782;6.818;2024-01-30T03:38:35;101620.16;;;8.80;78.36
72892;BME280;61032;50.782;6.818;2024-01-30T03:39:35;101614.69;;;8.80;78.34
72892;BME280;61032;50.782;6.818;2024-01-30T03:40:36;101608.16;;;8.76;78.72
72892;BME280;61032;50.782;6.818;2024-01-30T03:41:37;101610.25;;;8.84;78.29
72892;BME280;61032;50.782;6.818;2024-01-30T03:42:37;101614.69;;;8.80;78.54
72892;BME280;61032;50.782;6.818;2024-01-30T03:43:37;101608.97;;;8.77;78.65
72892;BME280;61032;50.782;6.818;2024-01-30T03:44:37;101614.22;;;8.73;78.60
72892;BME280;61032;50.782;6.818;2024-01-30T03:45:38;101614.00;;;8.70;78.71
72892;BME280;61032;50.782;6.818;2024-01-30T03:46:38;101616.44;;;8.71;78.64
72892;BME280;61032;50.782;6.818;2024-01-30T03:47:39;101611.78;;;8.72;78.60
72892;BME280;61032;50.782;6.818;2024-01-30T03:48:39;101616.94;;;8.73;78.68
72892;BME280;61032;50.782;6.818;2024-01-30T03:49:40;101618.09;;;8.72;78.82
72892;BME280;61032;50.782;6.818;2024-01-30T03:50:40;101619.69;;;8.73;78.67
72892;BME280;61032;50.782;6.818;2024-01-30T03:51:41;101607.63;;;8.74;78.64
72892;BME280;61032;50.782;6.818;2024-01-30T03:52:41;101615.84;;;8.74;78.24
72892;BME280;61032;50.782;6.818;2024-01-30T03:53:42;101611.78;;;8.72;78.56
72892;BME280;61032;50.782;6.818;2024-01-30T03:54:42;101606.59;;;8.70;78.58
72892;BME280;61032;50.782;6.818;2024-01-30T03:55:42;101608.72;;;8.73;78.50
72892;BME280;61032;50.782;6.818;2024-01-30T03:56:43;101609.25;;;8.75;78.79
72892;BME280;61032;50.782;6.818;2024-01-30T03:57:43;101609.25;;;8.75;78.31
72892;BME280;61032;50.782;6.818;2024-01-30T03:58:43;101613.63;;;8.76;78.65
72892;BME280;61032;50.782;6.818;2024-01-30T03:59:44;101614.53;;;8.72;78.64
72892;BME280;61032;50.782;6.818;2024-01-30T04:00:44;101606.06;;;8.68;78.47
72892;BME280;61032;50.782;6.818;2024-01-30T04:01:46;101609.91;;;8.67;78.84
72892;BME280;61032;50.782;6.818;2024-01-30T04:02:46;101605.00;;;8.64;78.49
72892;BME280;61032;50.782;6.818;2024-01-30T04:03:47;101613.47;;;8.68;78.95
72892;BME280;61032;50.782;6.818;2024-01-30T04:04:47;101603.03;;;8.70;78.69
72892;BME280;61032;50.782;6.818;2024-01-30T04:05:47;101608.50;;;8.70;78.93
72892;BME280;61032;50.782;6.818;2024-01-30T04:06:48;101607.22;;;8.62;78.85
72892;BME280;61032;50.782;6.818;2024-01-30T04:07:48;101605.03;;;8.59;78.91
72892;BME280;61032;50.782;6.818;2024-01-30T04:08:48;101600.09;;;8.61;79.28
72892;BME280;61032;50.782;6.818;2024-01-30T04:09:49;101603.97;;;8.55;79.14
72892;BME280;61032;50.782;6.818;2024-01-30T04:10:49;101602.06;;;8.55;79.29
72892;BME280;61032;50.782;6.818;2024-01-30T04:11:49;101604.22;;;8.58;79.58
72892;BME280;61032;50.782;6.818;2024-01-30T04:12:50;101608.06;;;8.57;79.61
72892;BME280;61032;50.782;6.818;2024-01-30T04:13:50;101601.25;;;8.55;79.36
72892;BME280;61032;50.782;6.818;2024-01-30T04:14:50;101604.06;;;8.50;79.49
72892;BME280;61032;50.782;6.818;2024-01-30T04:15:50;101604.34;;;8.48;79.39
72892;BME280;61032;50.782;6.818;2024-01-30T04:16:51;101599.09;;;8.52;79.37
72892;BME280;61032;50.782;6.818;2024-01-30T04:17:51;101599.38;;;8.50;79.53
72892;BME280;61032;50.782;6.818;2024-01-30T04:18:52;101602.13;;;8.50;79.38
72892;BME280;61032;50.782;6.818;2024-01-30T04:19:52;101600.50;;;8.49;79.75
72892;BME280;61032;50.782;6.818;2024-01-30T04:20:52;101594.72;;;8.51;79.55
72892;BME280;61032;50.782;6.818;2024-01-30T04:21:52;101599.16;;;8.47;79.53
72892;BME280;61032;50.782;6.818;2024-01-30T04:22:53;101592.56;;;8.48;79.65
72892;BME280;61032;50.782;6.818;2024-01-30T04:23:53;101591.47;;;8.49;79.81
72892;BME280;61032;50.782;6.818;2024-01-30T04:24:53;101598.63;;;8.45;79.73
72892;BME280;61032;50.782;6.818;2024-01-30T04:25:54;101599.16;;;8.47;79.69
72892;BME280;61032;50.782;6.818;2024-01-30T04:26:54;101594.47;;;8.47;79.87
72892;BME280;61032;50.782;6.818;2024-01-30T04:27:54;101601.31;;;8.50;79.81
72892;BME280;61032;50.782;6.818;2024-01-30T04:28:55;101595.31;;;8.48;79.52
72892;BME280;61032;50.782;6.818;2024-01-30T04:29:55;101602.41;;;8.49;79.59
72892;BME280;61032;50.782;6.818;2024-01-30T04:30:55;101598.63;;;8.45;79.90
72892;BME280;61032;50.782;6.818;2024-01-30T04:31:55;101600.25;;;8.46;79.69
72892;BME280;61032;50.782;6.818;2024-01-30T04:32:56;101598.84;;;8.48;79.72
72892;BME280;61032;50.782;6.818;2024-01-30T04:33:56;101601.88;;;8.47;79.92
72892;BME280;61032;50.782;6.818;2024-01-30T04:34:56;101609.28;;;8.46;80.09
72892;BME280;61032;50.782;6.818;2024-01-30T04:35:57;101607.41;;;8.42;80.04
72892;BME280;61032;50.782;6.818;2024-01-30T04:36:57;101603.53;;;8.48;80.28
72892;BME280;61032;50.782;6.818;2024-01-30T04:37:57;101604.38;;;8.43;80.08
72892;BME280;61032;50.782;6.818;2024-01-30T04:38:58;101600.53;;;8.44;80.21
72892;BME280;61032;50.782;6.818;2024-01-30T04:39:58;101606.56;;;8.46;79.97
72892;BME280;61032;50.782;6.818;2024-01-30T04:40:58;101605.19;;;8.44;80.18
72892;BME280;61032;50.782;6.818;2024-01-30T04:41:59;101601.34;;;8.45;80.04
72892;BME280;61032;50.782;6.818;2024-01-30T04:42:59;101599.72;;;8.44;80.30
72892;BME280;61032;50.782;6.818;2024-01-30T04:43:59;101593.72;;;8.42;80.28
72892;BME280;61032;50.782;6.818;2024-01-30T04:45:00;101595.34;;;8.43;80.22
72892;BME280;61032;50.782;6.818;2024-01-30T04:46:00;101598.38;;;8.41;79.88
72892;BME280;61032;50.782;6.818;2024-01-30T04:47:00;101596.44;;;8.42;80.09
72892;BME280;61032;50.782;6.818;2024-01-30T04:48:01;101605.50;;;8.42;79.95
72892;BME280;61032;50.782;6.818;2024-01-30T04:49:02;101605.19;;;8.44;79.86
72892;BME280;61032;50.782;6.818;2024-01-30T04:50:03;101608.22;;;8.42;79.77
72892;BME280;61032;50.782;6.818;2024-01-30T04:51:04;101606.03;;;8.44;79.84
72892;BME280;61032;50.782;6.818;2024-01-30T04:52:06;101610.09;;;8.47;79.68
72892;BME280;61032;50.782;6.818;2024-01-30T04:53:06;101614.47;;;8.48;79.56
72892;BME280;61032;50.782;6.818;2024-01-30T04:54:08;101608.47;;;8.46;79.70
72892;BME280;61032;50.782;6.818;2024-01-30T04:55:08;101609.84;;;8.43;79.56
72892;BME280;61032;50.782;6.818;2024-01-30T04:56:08;101612.88;;;8.42;79.55
72892;BME280;61032;50.782;6.818;2024-01-30T04:57:09;101610.44;;;8.40;79.71
72892;BME280;61032;50.782;6.818;2024-01-30T04:58:12;101611.25;;;8.41;79.76
72892;BME280;61032;50.782;6.818;2024-01-30T04:59:12;101606.88;;;8.40;79.57
72892;BME280;61032;50.782;6.818;2024-01-30T05:00:13;101611.00;;;8.37;79.98
72892;BME280;61032;50.782;6.818;2024-01-30T05:01:16;101603.63;;;8.33;79.92
72892;BME280;61032;50.782;6.818;2024-01-30T05:02:17;101605.84;;;8.31;80.04
72892;BME280;61032;50.782;6.818;2024-01-30T05:03:19;101609.69;;;8.30;80.14
72892;BME280;61032;50.782;6.818;2024-01-30T05:04:19;101604.50;;;8.28;80.26
72892;BME280;61032;50.782;6.818;2024-01-30T05:05:20;101599.31;;;8.26;80.30
72892;BME280;61032;50.782;6.818;2024-01-30T05:06:25;101605.06;;;8.25;80.07
72892;BME280;61032;50.782;6.818;2024-01-30T05:07:26;101602.63;;;8.23;80.33
72892;BME280;61032;50.782;6.818;2024-01-30T05:08:26;101601.25;;;8.21;80.51
72892;BME280;61032;50.782;6.818;2024-01-30T05:09:27;101597.72;;;8.20;80.21
72892;BME280;61032;50.782;6.818;2024-01-30T05:10:27;101598.81;;;8.19;80.48
72892;BME280;61032;50.782;6.818;2024-01-30T05:11:28;101594.44;;;8.18;80.29
72892;BME280;61032;50.782;6.818;2024-01-30T05:12:29;101595.78;;;8.21;80.56
72892;BME280;61032;50.782;6.818;2024-01-30T05:13:32;101603.19;;;8.20;80.55
72892;BME280;61032;50.782;6.818;2024-01-30T05:14:32;101599.91;;;8.18;80.45
72892;BME280;61032;50.782;6.818;2024-01-30T05:15:33;101595.78;;;8.21;80.28
72892;BME280;61032;50.782;6.818;2024-01-30T05:16:33;101591.94;;;8.22;80.32
72892;BME280;61032;50.782;6.818;2024-01-30T05:17:33;101603.47;;;8.19;80.42
72892;BME280;61032;50.782;6.818;2024-01-30T05:18:34;101596.34;;;8.18;80.30
72892;BME280;61032;50.782;6.818;2024-01-30T05:19:34;101603.22;;;8.15;80.55
72892;BME280;61032;50.782;6.818;2024-01-30T05:20:34;101601.03;;;8.12;80.75